createdAt,value
2023-04-23T00:02:06.408Z,100211.77
2023-04-23T00:04:35.195Z,100214.94
2023-04-23T00:07:03.742Z,100215.79
2023-04-23T00:09:32.634Z,100217.67
2023-04-23T00:12:01.992Z,100222.23
2023-04-23T00:14:30.582Z,100222.50
2023-04-23T00:16:58.441Z,100224.34
2023-04-23T00:19:26.532Z,100222.55
2023-04-23T00:21:54.316Z,100228.06
2023-04-23T00:24:22.269Z,100226.94
2023-04-23T00:26:53.044Z,100225.45
2023-04-23T00:29:21.072Z,100228.40
2023-04-23T00:31:49.075Z,100229.13
2023-04-23T00:34:17.008Z,100228.27
2023-04-23T00:36:45.279Z,100228.32
2023-04-23T00:39:13.221Z,100227.64
2023-04-23T00:41:41.788Z,100227.67
2023-04-23T00:44:10.272Z,100232.25
2023-04-23T00:46:38.669Z,100227.70
2023-04-23T00:49:07.067Z,100231.30
2023-04-23T00:51:36.328Z,100231.96
2023-04-23T00:54:04.436Z,100232.52
2023-04-23T00:56:32.389Z,100232.86
2023-04-23T00:59:02.694Z,100235.52
2023-04-23T01:01:31.018Z,100232.72
2023-04-23T01:03:59.116Z,100234.77
2023-04-23T01:06:28.749Z,100233.54
2023-04-23T01:08:56.658Z,100232.11
2023-04-23T01:11:24.738Z,100233.20
2023-04-23T01:13:52.594Z,100231.89
2023-04-23T01:16:20.503Z,100233.72
2023-04-23T01:18:48.629Z,100230.87
2023-04-23T01:21:16.816Z,100233.29
2023-04-23T01:23:44.777Z,100232.73
2023-04-23T01:26:12.742Z,100234.98
2023-04-23T01:28:41.597Z,100235.54
2023-04-23T01:31:09.705Z,100236.84
2023-04-23T01:33:37.817Z,100238.10
2023-04-23T01:36:05.874Z,100234.00
2023-04-23T01:38:33.749Z,100234.83
2023-04-23T01:41:01.771Z,100235.59
2023-04-23T01:43:29.959Z,100235.44
2023-04-23T01:45:58.346Z,100235.68
2023-04-23T01:48:26.323Z,100235.55
2023-04-23T01:50:54.444Z,100235.72
2023-04-23T01:53:22.597Z,100236.60
2023-04-23T01:55:50.621Z,100238.71
2023-04-23T01:58:19.580Z,100236.52
2023-04-23T02:00:47.461Z,100241.17
2023-04-23T02:03:16.483Z,100238.41
2023-04-23T02:05:45.290Z,100241.92
2023-04-23T02:08:13.335Z,100246.60
2023-04-23T02:10:41.260Z,100242.60
2023-04-23T02:13:09.979Z,100243.21
2023-04-23T02:15:38.315Z,100241.30
2023-04-23T02:18:06.704Z,100243.31
2023-04-23T02:20:38.781Z,100241.21
2023-04-23T02:23:08.117Z,100238.77
2023-04-23T02:25:38.453Z,100241.64
2023-04-23T02:28:07.756Z,100241.02
2023-04-23T02:30:36.383Z,100240.63
2023-04-23T02:33:05.153Z,100246.33
2023-04-23T02:35:33.519Z,100247.33
2023-04-23T02:38:01.452Z,100248.65
2023-04-23T02:40:29.641Z,100245.05
2023-04-23T02:42:57.492Z,100246.04
2023-04-23T02:45:25.815Z,100250.61
2023-04-23T02:47:53.901Z,100248.26
2023-04-23T02:50:22.163Z,100251.65
2023-04-23T02:52:49.986Z,100253.66
2023-04-23T02:55:17.996Z,100258.45
2023-04-23T02:57:46.381Z,100257.48
2023-04-23T03:00:15.551Z,100264.98
2023-04-23T03:02:44.754Z,100262.66
2023-04-23T03:05:13.072Z,100263.85
2023-04-23T03:07:41.370Z,100267.73
2023-04-23T03:10:09.770Z,100265.80
2023-04-23T03:12:38.630Z,100266.73
2023-04-23T03:15:07.085Z,100266.72
2023-04-23T03:17:36.700Z,100270.26
2023-04-23T03:20:07.099Z,100272.44
2023-04-23T03:22:36.252Z,100278.27
2023-04-23T03:25:04.950Z,100280.77
2023-04-23T03:27:32.838Z,100283.14
2023-04-23T03:30:01.030Z,100287.02
2023-04-23T03:32:29.083Z,100290.61
2023-04-23T03:34:56.965Z,100290.71
2023-04-23T03:37:25.198Z,100293.73
2023-04-23T03:39:53.286Z,100296.52
2023-04-23T03:45:26.256Z,100293.86
2023-04-23T03:47:54.627Z,100295.55
2023-04-23T03:50:22.737Z,100298.75
2023-04-23T03:53:05.190Z,100305.39
2023-04-23T03:55:55.853Z,100305.02
2023-04-23T03:58:23.854Z,100305.52
2023-04-23T04:00:53.351Z,100307.58
2023-04-23T04:03:21.701Z,100307.37
2023-04-23T04:05:50.509Z,100310.46
2023-04-23T04:08:19.573Z,100312.38
2023-04-23T04:10:47.487Z,100313.84
2023-04-23T04:13:16.173Z,100317.80
2023-04-23T04:15:44.250Z,100318.37
2023-04-23T04:18:12.274Z,100316.11
2023-04-23T04:20:40.258Z,100316.54
2023-04-23T04:23:08.140Z,100320.20
2023-04-23T04:25:39.912Z,100320.69
2023-04-23T04:28:12.046Z,100319.42
2023-04-23T04:30:40.563Z,100323.38
2023-04-23T04:33:09.068Z,100327.33
2023-04-23T04:35:37.161Z,100328.10
2023-04-23T04:38:05.232Z,100331.83
2023-04-23T04:40:34.679Z,100331.63
2023-04-23T04:43:05.431Z,100332.47
2023-04-23T04:45:33.747Z,100333.81
2023-04-23T04:48:01.956Z,100337.44
2023-04-23T04:50:30.164Z,100336.75
2023-04-23T04:52:58.084Z,100338.81
2023-04-23T04:55:27.217Z,100339.65
2023-04-23T04:57:55.948Z,100337.80
2023-04-23T05:00:27.846Z,100339.72
2023-04-23T05:02:57.340Z,100337.25
2023-04-23T05:05:26.171Z,100340.73
2023-04-23T05:07:59.440Z,100340.58
2023-04-23T05:10:27.584Z,100345.56
2023-04-23T05:12:58.559Z,100344.05
2023-04-23T05:15:26.658Z,100349.98
2023-04-23T05:17:54.657Z,100350.70
2023-04-23T05:20:22.919Z,100350.85
2023-04-23T05:22:50.823Z,100349.20
2023-04-23T05:25:18.879Z,100353.28
2023-04-23T05:27:46.831Z,100356.87
2023-04-23T05:30:15.239Z,100359.58
2023-04-23T05:32:43.514Z,100363.90
2023-04-23T05:35:11.457Z,100362.64
2023-04-23T05:37:39.440Z,100363.88
2023-04-23T05:40:08.022Z,100367.17
2023-04-23T05:42:36.526Z,100367.38
2023-04-23T05:45:07.246Z,100369.77
2023-04-23T05:47:36.806Z,100368.30
2023-04-23T05:50:06.373Z,100371.04
2023-04-23T05:52:37.298Z,100371.10
2023-04-23T05:55:07.957Z,100370.56
2023-04-23T05:57:37.671Z,100378.02
2023-04-23T06:00:09.856Z,100374.73
2023-04-23T06:02:41.343Z,100377.38
2023-04-23T06:05:10.231Z,100381.55
2023-04-23T06:07:38.522Z,100382.71
2023-04-23T06:10:07.445Z,100386.45
2023-04-23T06:12:39.263Z,100388.77
2023-04-23T06:15:08.559Z,100381.71
2023-04-23T06:17:38.218Z,100388.67
2023-04-23T06:20:07.440Z,100389.78
2023-04-23T06:22:35.554Z,100387.42
2023-04-23T06:25:04.052Z,100387.46
2023-04-23T06:27:33.743Z,100388.79
2023-04-23T06:30:06.166Z,100387.64
2023-04-23T06:32:34.216Z,100387.66
2023-04-23T06:35:02.602Z,100386.95
2023-04-23T06:37:31.949Z,100387.41
2023-04-23T06:40:00.237Z,100387.66
2023-04-23T06:42:28.221Z,100389.63
2023-04-23T06:45:33.344Z,100390.75
2023-04-23T06:48:01.707Z,100391.83
2023-04-23T06:50:30.561Z,100390.95
2023-04-23T06:52:58.428Z,100391.65
2023-04-23T06:55:26.434Z,100388.97
2023-04-23T06:57:54.714Z,100390.55
2023-04-23T07:00:22.901Z,100387.55
2023-04-23T07:02:51.229Z,100390.71
2023-04-23T07:05:19.464Z,100392.43
2023-04-23T07:07:47.396Z,100385.16
2023-04-23T07:10:17.475Z,100382.08
2023-04-23T07:12:45.939Z,100389.98
2023-04-23T07:15:13.790Z,100386.79
2023-04-23T07:17:41.891Z,100389.27
2023-04-23T07:20:09.977Z,100384.59
2023-04-23T07:22:38.289Z,100384.45
2023-04-23T07:25:08.747Z,100383.46
2023-04-23T07:27:37.206Z,100384.52
2023-04-23T07:30:06.882Z,100384.95
2023-04-23T07:32:35.071Z,100383.05
2023-04-23T07:35:03.135Z,100387.38
2023-04-23T07:37:31.288Z,100383.53
2023-04-23T07:40:00.259Z,100385.13
2023-04-23T07:42:28.671Z,100390.64
2023-04-23T07:44:56.567Z,100387.88
2023-04-23T07:47:24.465Z,100386.30
2023-04-23T07:49:52.714Z,100387.55
2023-04-23T07:52:22.124Z,100387.21
2023-04-23T07:54:51.304Z,100385.17
2023-04-23T07:57:19.265Z,100384.67
2023-04-23T07:59:47.072Z,100385.61
2023-04-23T08:02:15.172Z,100385.90
2023-04-23T08:04:43.255Z,100385.27
2023-04-23T08:07:11.767Z,100384.10
2023-04-23T08:09:40.550Z,100380.96
2023-04-23T08:12:08.667Z,100378.33
2023-04-23T08:14:36.593Z,100379.77
2023-04-23T08:17:05.897Z,100376.70
2023-04-23T08:19:34.093Z,100377.74
2023-04-23T08:22:01.982Z,100375.84
2023-04-23T08:24:30.322Z,100375.11
2023-04-23T08:26:58.199Z,100371.26
2023-04-23T08:29:26.048Z,100372.53
2023-04-23T08:31:53.938Z,100375.19
2023-04-23T08:34:22.083Z,100378.05
2023-04-23T08:36:49.969Z,100374.84
2023-04-23T08:39:17.920Z,100376.13
2023-04-23T08:41:48.265Z,100375.23
2023-04-23T08:44:21.804Z,100372.60
2023-04-23T08:46:49.786Z,100368.98
2023-04-23T08:49:18.304Z,100369.15
2023-04-23T08:51:53.405Z,100362.98
2023-04-23T08:54:28.398Z,100358.30
2023-04-23T08:56:58.417Z,100364.41
2023-04-23T08:59:26.670Z,100361.52
2023-04-23T09:01:54.701Z,100358.77
2023-04-23T09:04:23.919Z,100354.02
2023-04-23T09:06:52.178Z,100357.09
2023-04-23T09:09:20.214Z,100354.25
2023-04-23T09:11:48.345Z,100351.42
2023-04-23T09:14:16.248Z,100345.73
2023-04-23T09:16:44.611Z,100348.93
2023-04-23T09:19:12.655Z,100349.46
2023-04-23T09:21:41.200Z,100346.98
2023-04-23T09:24:12.245Z,100347.71
2023-04-23T09:26:48.295Z,100349.39
2023-04-23T09:29:18.490Z,100345.67
2023-04-23T09:31:47.873Z,100343.20
2023-04-23T09:34:18.667Z,100347.05
2023-04-23T09:36:47.822Z,100343.39
2023-04-23T09:39:16.966Z,100335.54
2023-04-23T09:41:47.828Z,100340.00
2023-04-23T09:44:19.692Z,100339.06
2023-04-23T09:46:47.538Z,100340.12
2023-04-23T09:49:15.735Z,100335.70
2023-04-23T09:51:46.197Z,100338.58
2023-04-23T09:54:26.073Z,100335.05
2023-04-23T09:56:57.318Z,100336.30
2023-04-23T09:59:46.993Z,100338.36
2023-04-23T10:02:15.411Z,100335.24
2023-04-23T10:04:43.830Z,100328.99
2023-04-23T10:07:19.755Z,100325.95
2023-04-23T10:09:48.628Z,100322.78
2023-04-23T10:14:49.540Z,100325.88
2023-04-23T10:17:18.001Z,100319.02
2023-04-23T10:19:46.253Z,100318.75
2023-04-23T10:24:46.746Z,100329.40
2023-04-23T10:27:28.511Z,100325.08
2023-04-23T10:30:10.642Z,100326.04
2023-04-23T10:32:39.321Z,100327.55
2023-04-23T10:35:08.502Z,100328.67
2023-04-23T10:37:37.371Z,100321.27
2023-04-23T10:40:27.037Z,100318.39
2023-04-23T10:42:55.671Z,100317.27
2023-04-23T10:45:25.236Z,100315.98
2023-04-23T10:47:55.425Z,100315.17
2023-04-23T10:50:27.996Z,100314.73
2023-04-23T10:52:57.624Z,100317.58
2023-04-23T10:55:27.450Z,100314.74
2023-04-23T10:58:05.891Z,100311.14
2023-04-23T11:00:45.530Z,100302.00
2023-04-23T11:03:30.845Z,100305.17
2023-04-23T11:06:04.851Z,100308.23
2023-04-23T11:08:38.026Z,100310.34
2023-04-23T11:11:09.197Z,100308.21
2023-04-23T11:13:37.538Z,100308.73
2023-04-23T11:16:21.825Z,100311.88
2023-04-23T11:19:03.972Z,100307.55
2023-04-23T11:22:00.987Z,100310.84
2023-04-23T11:24:42.895Z,100308.29
2023-04-23T11:27:18.298Z,100303.85
2023-04-23T11:29:46.608Z,100302.30
2023-04-23T11:32:16.379Z,100305.82
2023-04-23T11:34:45.668Z,100303.63
2023-04-23T11:37:15.489Z,100301.17
2023-04-23T11:39:44.919Z,100298.73
2023-04-23T11:42:16.267Z,100294.05
2023-04-23T11:44:45.185Z,100288.82
2023-04-23T11:47:14.384Z,100292.41
2023-04-23T11:49:43.636Z,100295.52
2023-04-23T11:52:12.765Z,100291.28
2023-04-23T11:54:41.321Z,100290.39
2023-04-23T11:57:10.278Z,100289.83
2023-04-23T11:59:38.403Z,100287.77
2023-04-23T12:02:06.506Z,100295.66
2023-04-23T12:04:34.611Z,100285.50
2023-04-23T12:07:10.180Z,100292.39
2023-04-23T12:09:47.388Z,100288.59
2023-04-23T12:12:15.252Z,100289.95
2023-04-23T12:14:43.124Z,100289.83
2023-04-23T12:17:11.436Z,100290.24
2023-04-23T12:19:40.561Z,100294.39
2023-04-23T12:22:09.079Z,100293.08
2023-04-23T12:24:52.359Z,100290.13
2023-04-23T12:27:22.339Z,100288.04
2023-04-23T12:30:02.982Z,100286.95
2023-04-23T12:32:34.338Z,100287.70
2023-04-23T12:35:02.307Z,100287.93
2023-04-23T12:37:31.155Z,100286.67
2023-04-23T12:39:59.750Z,100286.41
2023-04-23T12:42:27.833Z,100281.06
2023-04-23T12:44:56.342Z,100280.64
2023-04-23T12:47:24.402Z,100280.20
2023-04-23T12:49:56.882Z,100283.89
2023-04-23T12:52:25.025Z,100277.96
2023-04-23T12:54:56.530Z,100276.23
2023-04-23T12:57:24.694Z,100276.22
2023-04-23T12:59:54.955Z,100275.61
2023-04-23T13:02:24.271Z,100275.60
2023-04-23T13:04:54.566Z,100276.17
2023-04-23T13:07:23.281Z,100272.48
2023-04-23T13:09:51.695Z,100270.77
2023-04-23T13:12:19.774Z,100269.84
2023-04-23T13:14:47.729Z,100268.10
2023-04-23T13:17:15.643Z,100263.36
2023-04-23T13:19:44.926Z,100267.48
2023-04-23T13:22:12.929Z,100268.16
2023-04-23T13:24:41.141Z,100264.45
2023-04-23T13:27:09.231Z,100264.52
2023-04-23T13:29:37.551Z,100263.06
2023-04-23T13:32:06.052Z,100261.36
2023-04-23T13:34:34.566Z,100266.98
2023-04-23T13:37:05.654Z,100267.01
2023-04-23T13:39:33.874Z,100259.09
2023-04-23T13:42:09.549Z,100261.11
2023-04-23T13:44:38.371Z,100261.61
2023-04-23T13:47:06.420Z,100260.58
2023-04-23T13:49:34.365Z,100264.16
2023-04-23T13:52:06.751Z,100269.39
2023-04-23T13:54:39.344Z,100270.02
2023-04-23T13:57:07.395Z,100268.66
2023-04-23T13:59:35.715Z,100273.86
2023-04-23T14:02:03.656Z,100271.05
2023-04-23T14:04:32.315Z,100269.40
2023-04-23T14:07:00.317Z,100268.41
2023-04-23T14:09:29.832Z,100268.75
2023-04-23T14:11:58.001Z,100271.05
2023-04-23T14:14:25.807Z,100271.10
2023-04-23T14:16:53.699Z,100269.84
2023-04-23T14:19:21.720Z,100265.61
2023-04-23T14:21:50.070Z,100265.84
2023-04-23T14:24:23.694Z,100260.48
2023-04-23T14:26:51.593Z,100257.52
2023-04-23T14:29:42.163Z,100257.94
2023-04-23T14:32:10.419Z,100254.77
2023-04-23T14:34:38.952Z,100260.60
2023-04-23T14:37:05.844Z,100254.91
2023-04-23T14:39:33.789Z,100254.42
2023-04-23T14:42:01.365Z,100251.52
2023-04-23T14:44:28.094Z,100254.48
2023-04-23T14:46:54.900Z,100255.77
2023-04-23T14:49:21.842Z,100254.05
2023-04-23T14:51:50.906Z,100252.65
2023-04-23T14:54:17.685Z,100255.46
2023-04-23T14:56:44.314Z,100256.16
2023-04-23T14:59:11.149Z,100248.05
2023-04-23T15:01:37.905Z,100249.65
2023-04-23T15:04:05.256Z,100242.08
2023-04-23T15:06:31.914Z,100240.52
2023-04-23T15:08:58.740Z,100239.58
2023-04-23T15:11:25.621Z,100240.15
2023-04-23T15:14:03.867Z,100234.05
2023-04-23T15:19:03.800Z,100238.34
2023-04-23T15:21:30.454Z,100235.78
2023-04-23T15:23:57.184Z,100237.14
2023-04-23T15:26:23.897Z,100232.79
2023-04-23T15:28:50.930Z,100232.45
2023-04-23T15:31:17.632Z,100233.22
2023-04-23T15:33:44.825Z,100229.64
2023-04-23T15:36:11.675Z,100227.05
2023-04-23T15:38:38.318Z,100231.54
2023-04-23T15:41:05.499Z,100227.91
2023-04-23T15:43:32.188Z,100229.45
2023-04-23T15:46:00.790Z,100231.80
2023-04-23T15:48:27.907Z,100230.69
2023-04-23T15:50:54.662Z,100233.05
2023-04-23T15:53:22.975Z,100231.82
2023-04-23T15:55:52.452Z,100229.39
2023-04-23T15:58:19.528Z,100227.95
2023-04-23T16:03:32.924Z,100229.27
2023-04-23T16:05:59.980Z,100224.80
2023-04-23T16:08:26.715Z,100228.15
2023-04-23T16:10:53.404Z,100223.04
2023-04-23T16:13:20.126Z,100229.21
2023-04-23T16:15:47.103Z,100228.02
2023-04-23T16:18:13.912Z,100229.05
2023-04-23T16:20:41.392Z,100227.64
2023-04-23T16:23:08.142Z,100225.02
2023-04-23T16:25:34.835Z,100225.86
2023-04-23T16:28:01.565Z,100230.99
2023-04-23T16:30:28.356Z,100229.92
2023-04-23T16:32:55.015Z,100233.23
2023-04-23T16:35:22.082Z,100236.16
2023-04-23T16:37:48.784Z,100236.17
2023-04-23T16:40:15.997Z,100232.67
2023-04-23T16:42:43.697Z,100231.52
2023-04-23T16:45:11.278Z,100231.48
2023-04-23T16:47:37.922Z,100234.83
2023-04-23T16:50:04.942Z,100231.52
2023-04-23T16:52:31.684Z,100230.56
2023-04-23T16:54:58.336Z,100232.77
2023-04-23T16:57:25.870Z,100231.98
2023-04-23T16:59:52.825Z,100238.30
2023-04-23T17:02:21.147Z,100237.23
2023-04-23T17:04:48.347Z,100239.83
2023-04-23T17:07:15.343Z,100239.43
2023-04-23T17:09:42.009Z,100242.95
2023-04-23T17:12:08.669Z,100246.43
2023-04-23T17:14:35.538Z,100248.01
2023-04-23T17:17:02.197Z,100250.63
2023-04-23T17:19:28.888Z,100257.24
2023-04-23T17:21:55.628Z,100256.30
2023-04-23T17:24:22.289Z,100258.33
2023-04-23T17:26:49.235Z,100254.35
2023-04-23T17:29:15.999Z,100256.59
2023-04-23T17:31:42.621Z,100259.63
2023-04-23T17:34:09.298Z,100260.73
2023-04-23T17:36:35.998Z,100260.54
2023-04-23T17:39:02.956Z,100266.08
2023-04-23T17:41:29.698Z,100268.23
2023-04-23T17:43:56.370Z,100270.80
2023-04-23T17:46:23.184Z,100274.06
2023-04-23T17:48:50.122Z,100277.20
2023-04-23T17:51:16.779Z,100281.98
2023-04-23T17:53:48.172Z,100284.61
2023-04-23T17:56:15.702Z,100288.88
2023-04-23T17:58:42.424Z,100290.05
2023-04-23T18:01:09.798Z,100291.08
2023-04-23T18:03:36.991Z,100294.76
2023-04-23T18:06:04.267Z,100293.45
2023-04-23T18:08:31.249Z,100297.40
2023-04-23T18:10:58.335Z,100295.55
2023-04-23T18:13:25.031Z,100296.17
2023-04-23T18:15:51.898Z,100298.23
2023-04-23T18:18:18.870Z,100296.93
2023-04-23T18:20:46.387Z,100293.70
2023-04-23T18:23:14.343Z,100290.83
2023-04-23T18:25:41.883Z,100291.81
2023-04-23T18:28:08.516Z,100295.50
2023-04-23T18:30:36.912Z,100294.42
2023-04-23T18:33:36.339Z,100291.14
2023-04-23T18:36:05.785Z,100289.34
2023-04-23T18:38:38.496Z,100290.88
2023-04-23T18:41:05.315Z,100291.04
2023-04-23T18:43:32.591Z,100290.89
2023-04-23T18:45:59.318Z,100296.02
2023-04-23T18:48:34.825Z,100298.67
2023-04-23T18:51:25.237Z,100298.27
2023-04-23T18:53:52.051Z,100298.16
2023-04-23T18:56:19.101Z,100302.40
2023-04-23T18:58:45.782Z,100297.83
2023-04-23T19:01:12.473Z,100299.13
2023-04-23T19:03:39.470Z,100301.71
2023-04-23T19:06:07.920Z,100299.91
2023-04-23T19:08:37.930Z,100301.17
2023-04-23T19:11:04.639Z,100307.86
2023-04-23T19:13:31.332Z,100308.77
2023-04-23T19:15:58.025Z,100304.23
2023-04-23T19:18:24.701Z,100306.27
2023-04-23T19:20:52.500Z,100302.05
2023-04-23T19:23:19.777Z,100304.95
2023-04-23T19:25:46.433Z,100306.00
2023-04-23T19:28:13.226Z,100304.74
2023-04-23T19:30:40.073Z,100307.74
2023-04-23T19:33:06.837Z,100299.02
2023-04-23T19:35:33.713Z,100301.66
2023-04-23T19:38:00.372Z,100302.45
2023-04-23T19:40:27.043Z,100298.88
2023-04-23T19:42:53.644Z,100295.41
2023-04-23T19:45:20.547Z,100295.83
2023-04-23T19:47:47.997Z,100293.90
2023-04-23T19:50:15.278Z,100291.22
2023-04-23T19:52:41.978Z,100293.68
2023-04-23T19:55:08.965Z,100296.11
2023-04-23T19:57:35.886Z,100300.52
2023-04-23T20:00:05.745Z,100299.73
2023-04-23T20:02:33.551Z,100295.81
2023-04-23T20:05:00.304Z,100295.30
2023-04-23T20:07:26.936Z,100293.40
2023-04-23T20:09:54.064Z,100286.16
2023-04-23T20:12:20.929Z,100285.45
2023-04-23T20:14:47.715Z,100286.97
2023-04-23T20:17:14.429Z,100284.85
2023-04-23T20:19:41.242Z,100283.16
2023-04-23T20:22:08.281Z,100283.52
2023-04-23T20:24:35.720Z,100283.54
2023-04-23T20:27:02.540Z,100286.52
2023-04-23T20:29:30.592Z,100282.95
2023-04-23T20:31:57.404Z,100282.62
2023-04-23T20:34:24.060Z,100282.10
2023-04-23T20:36:51.324Z,100282.99
2023-04-23T20:39:22.317Z,100284.55
2023-04-23T20:41:50.596Z,100281.66
2023-04-23T20:44:18.059Z,100283.63
2023-04-23T20:46:45.377Z,100282.29
2023-04-23T20:49:12.295Z,100278.89
2023-04-23T20:51:38.949Z,100283.25
2023-04-23T20:54:05.691Z,100284.85
2023-04-23T20:56:32.325Z,100283.65
2023-04-23T20:58:59.542Z,100285.70
2023-04-23T21:01:26.543Z,100287.83
2023-04-23T21:03:53.771Z,100287.47
2023-04-23T21:06:21.052Z,100288.20
2023-04-23T21:08:47.947Z,100290.90
2023-04-23T21:11:18.784Z,100289.14
2023-04-23T21:13:46.198Z,100294.45
2023-04-23T21:16:13.008Z,100296.95
2023-04-23T21:18:40.083Z,100293.30
2023-04-23T21:21:07.500Z,100295.13
2023-04-23T21:23:34.273Z,100296.61
2023-04-23T21:26:00.916Z,100298.86
2023-04-23T21:28:27.504Z,100296.34
2023-04-23T21:30:55.607Z,100295.34
2023-04-23T21:33:24.067Z,100296.30
2023-04-23T21:35:51.970Z,100296.29
2023-04-23T21:38:19.298Z,100292.17
2023-04-23T21:40:46.895Z,100292.40
2023-04-23T21:43:13.865Z,100293.16
2023-04-23T21:45:40.515Z,100289.98
2023-04-23T21:48:07.198Z,100287.04
2023-04-23T21:50:33.961Z,100285.85
2023-04-23T21:53:04.073Z,100284.56
2023-04-23T21:55:31.572Z,100286.31
2023-04-23T21:58:09.897Z,100287.38
2023-04-23T22:00:44.593Z,100287.70
2023-04-23T22:03:12.323Z,100288.27
2023-04-23T22:05:42.329Z,100291.08
2023-04-23T22:08:09.739Z,100288.10
2023-04-23T22:10:42.823Z,100288.77
2023-04-23T22:13:10.085Z,100289.05
2023-04-23T22:15:36.920Z,100289.01
2023-04-23T22:18:03.776Z,100287.73
2023-04-23T22:20:30.673Z,100288.04
2023-04-23T22:22:57.382Z,100288.02
2023-04-23T22:25:24.111Z,100284.11
2023-04-23T22:27:50.904Z,100283.21
2023-04-23T22:30:17.660Z,100279.44
2023-04-23T22:32:44.503Z,100280.63
2023-04-23T22:35:11.478Z,100275.36
2023-04-23T22:37:38.346Z,100276.90
2023-04-23T22:40:07.654Z,100275.16
2023-04-23T22:42:34.298Z,100274.36
2023-04-23T22:45:01.223Z,100275.19
2023-04-23T22:47:27.971Z,100273.35
2023-04-23T22:49:54.703Z,100270.46
2023-04-23T22:52:21.819Z,100270.52
2023-04-23T22:54:48.657Z,100273.25
2023-04-23T22:57:15.490Z,100270.44
2023-04-23T22:59:42.375Z,100270.57
2023-04-23T23:02:09.461Z,100269.50
2023-04-23T23:04:38.570Z,100265.59
2023-04-23T23:07:05.954Z,100265.95
2023-04-23T23:09:32.656Z,100265.37
2023-04-23T23:12:02.453Z,100262.43
2023-04-23T23:14:29.516Z,100261.59
2023-04-23T23:16:57.205Z,100256.62
2023-04-23T23:19:24.419Z,100258.69
2023-04-23T23:21:51.583Z,100254.45
2023-04-23T23:24:19.144Z,100252.51
2023-04-23T23:26:46.638Z,100252.30
2023-04-23T23:29:13.354Z,100252.45
2023-04-23T23:31:40.093Z,100250.58
2023-04-23T23:34:06.866Z,100251.79
2023-04-23T23:36:34.129Z,100247.52
2023-04-23T23:39:00.952Z,100243.81
2023-04-23T23:41:27.607Z,100242.03
2023-04-23T23:43:54.764Z,100240.56
2023-04-23T23:46:21.468Z,100239.90
2023-04-23T23:48:48.170Z,100239.65
2023-04-23T23:51:14.844Z,100235.44
2023-04-23T23:53:41.514Z,100232.89
2023-04-23T23:56:08.144Z,100234.48
2023-04-23T23:58:34.884Z,100235.21
